Time;durP1;ratioP1;P1;durP2;ratioP2;P2;SDS_P1;SDS_P2;PMS_P1;PMS_P2;Temp;Humidity;BMP_temperature;BMP_pressure;BME280_temperature;BME280_humidity;BME280_pressure;Samples;Min_cycle;Max_cycle;Signal;HPM_P1;HPM_P2
2023/01/23 00:00:54;;;;;;;4.25;3.85;;;;;;;8.50;100.00;62872.53;4973982;29;20229;-79
2023/01/23 00:03:21;;;;;;;5.43;3.90;;;;;;;8.61;100.00;62880.84;4972979;29;20254;-78
2023/01/23 00:05:58;;;;;;;4.20;3.40;;;;;;;8.54;100.00;62881.22;4973344;29;20213;-80
2023/01/23 00:08:25;;;;;;;4.25;3.35;;;;;;;8.57;100.00;62881.78;4974637;28;20223;-80
2023/01/23 00:10:53;;;;;;;5.50;3.38;;;;;;;8.49;100.00;62868.44;4972991;29;20219;-83
2023/01/23 00:13:20;;;;;;;4.25;3.38;;;;;;;8.53;100.00;62878.16;4973680;28;20290;-81
2023/01/23 00:15:47;;;;;;;5.75;3.72;;;;;;;8.48;100.00;62870.44;4969837;29;20207;-79
2023/01/23 00:18:15;;;;;;;8.15;4.30;;;;;;;8.45;100.00;62869.91;4970299;28;20209;-79
2023/01/23 00:20:42;;;;;;;5.40;4.53;;;;;;;8.42;100.00;62861.72;4971197;29;20505;-81
2023/01/23 00:23:11;;;;;;;5.60;3.83;;;;;;;8.40;100.00;62859.66;4967998;29;20217;-82
2023/01/23 00:25:39;;;;;;;7.40;4.47;;;;;;;8.44;100.00;62860.75;4968771;28;20239;-81
2023/01/23 00:28:06;;;;;;;5.63;3.92;;;;;;;8.45;100.00;62864.81;4965350;29;20208;-80
2023/01/23 00:30:33;;;;;;;4.55;3.92;;;;;;;8.36;100.00;62860.06;4973046;29;20228;-80
2023/01/23 00:33:00;;;;;;;5.60;3.70;;;;;;;8.37;100.00;62861.13;4963422;28;20258;-79
2023/01/23 00:35:28;;;;;;;4.03;3.70;;;;;;;8.37;100.00;62861.63;4969844;28;20518;-79
2023/01/23 00:37:55;;;;;;;4.93;4.13;;;;;;;8.24;100.00;62848.19;4968580;28;20225;-78
2023/01/23 00:40:23;;;;;;;4.03;3.63;;;;;;;8.25;100.00;62846.19;4974632;29;20205;-80
2023/01/23 00:42:50;;;;;;;4.05;3.72;;;;;;;8.14;100.00;62832.78;4966443;29;20228;-78
2023/01/23 00:45:18;;;;;;;4.00;3.67;;;;;;;8.08;100.00;62829.13;4967243;28;20292;-79
2023/01/23 00:47:46;;;;;;;3.42;3.08;;;;;;;8.08;100.00;62832.16;4971910;29;20541;-78
2023/01/23 00:50:13;;;;;;;5.28;3.38;;;;;;;8.04;100.00;62830.56;4969817;29;20267;-79
2023/01/23 00:52:41;;;;;;;5.65;3.50;;;;;;;8.01;100.00;62822.41;4969636;29;20521;-80
2023/01/23 00:55:09;;;;;;;4.20;3.35;;;;;;;7.94;100.00;62812.66;4970447;29;20568;-78
2023/01/23 00:57:37;;;;;;;3.72;3.28;;;;;;;7.99;100.00;62822.34;4970334;29;20240;-79
2023/01/23 01:00:05;;;;;;;3.28;3.08;;;;;;;7.95;100.00;62818.22;4972772;29;20205;-79
2023/01/23 01:02:32;;;;;;;3.35;3.00;;;;;;;7.89;100.00;62812.03;4969772;28;20248;-78
2023/01/23 01:04:59;;;;;;;4.20;3.22;;;;;;;7.88;100.00;62808.47;4966774;28;20232;-80
2023/01/23 01:07:26;;;;;;;3.72;3.42;;;;;;;7.99;100.00;62819.81;4970819;29;20221;-78
2023/01/23 01:09:53;;;;;;;3.80;3.25;;;;;;;7.95;100.00;62813.16;4969497;29;20244;-79
2023/01/23 01:12:20;;;;;;;3.50;3.30;;;;;;;8.06;100.00;62830.09;4968681;28;20220;-78
2023/01/23 01:14:48;;;;;;;3.00;2.80;;;;;;;8.02;100.00;62822.94;4970361;28;20276;-81
2023/01/23 01:17:15;;;;;;;3.88;3.05;;;;;;;8.04;100.00;62827.53;4970808;29;20252;-80
2023/01/23 01:19:43;;;;;;;4.13;3.38;;;;;;;8.01;100.00;62819.88;4964559;29;20229;-78
2023/01/23 01:22:09;;;;;;;3.72;3.42;;;;;;;8.10;100.00;62831.19;4967980;28;20228;-79
2023/01/23 01:24:36;;;;;;;3.33;3.03;;;;;;;8.03;100.00;62824.47;4950291;29;20253;-77
2023/01/23 01:27:04;;;;;;;4.28;3.25;;;;;;;8.02;100.00;62822.94;4966083;29;20236;-81
2023/01/23 01:29:31;;;;;;;3.00;2.80;;;;;;;8.03;100.00;62827.00;4965368;29;20242;-78
2023/01/23 01:31:59;;;;;;;2.72;2.53;;;;;;;8.13;100.00;62839.88;4968730;28;20244;-79
2023/01/23 01:34:26;;;;;;;3.10;2.80;;;;;;;8.15;100.00;62836.88;4967956;29;20207;-78
2023/01/23 01:36:53;;;;;;;3.60;2.90;;;;;;;8.20;100.00;62842.03;4952484;29;20292;-80
2023/01/23 01:39:21;;;;;;;3.80;3.33;;;;;;;8.18;100.00;62839.44;4965942;29;20588;-80
2023/01/23 01:41:49;;;;;;;3.35;3.03;;;;;;;8.20;100.00;62838.97;4968469;28;20406;-78
2023/01/23 01:44:18;;;;;;;4.32;3.45;;;;;;;8.13;100.00;62832.25;4971278;28;20297;-79
2023/01/23 01:46:46;;;;;;;4.03;3.63;;;;;;;8.14;100.00;62838.34;4968869;29;20233;-80
2023/01/23 01:49:18;;;;;;;5.20;3.70;;;;;;;8.17;100.00;62838.94;4966693;28;20209;-79
2023/01/23 01:51:50;;;;;;;3.95;3.42;;;;;;;8.14;100.00;62837.84;4967392;28;20228;-79
2023/01/23 01:54:23;;;;;;;3.97;3.40;;;;;;;8.08;100.00;62832.16;4968439;29;20232;-78
2023/01/23 01:56:54;;;;;;;4.05;3.00;;;;;;;8.10;100.00;62831.19;4967908;29;20224;-78
2023/01/23 01:59:25;;;;;;;4.03;3.63;;;;;;;8.05;100.00;62829.09;4961681;28;20230;-77
2023/01/23 02:02:04;;;;;;;4.18;3.83;;;;;;;8.00;100.00;62818.31;4966443;28;20246;-78
2023/01/23 02:04:35;;;;;;;4.05;3.70;;;;;;;8.07;100.00;62828.09;4968298;29;20236;-78
2023/01/23 02:07:09;;;;;;;4.30;3.70;;;;;;;8.03;100.00;62823.94;4955973;29;20237;-79
2023/01/23 02:09:36;;;;;;;7.28;4.13;;;;;;;7.99;100.00;62822.88;4969161;28;20272;-78
2023/01/23 02:12:03;;;;;;;4.95;3.35;;;;;;;7.98;100.00;62821.84;4971494;29;20263;-79
2023/01/23 02:14:30;;;;;;;3.63;3.33;;;;;;;8.05;100.00;62824.00;4966566;28;20202;-79
2023/01/23 02:16:59;;;;;;;6.13;4.07;;;;;;;8.15;100.00;62841.41;4972163;28;20228;-79
2023/01/23 02:19:44;;;;;;;4.28;3.55;;;;;;;8.18;100.00;62842.50;4969966;28;20252;-79
2023/01/23 02:22:24;;;;;;;4.43;4.03;;;;;;;8.21;100.00;62843.06;4971563;29;20456;-79
2023/01/23 02:24:58;;;;;;;4.05;3.65;;;;;;;8.19;100.00;62840.47;4971950;29;20565;-77
2023/01/23 02:27:27;;;;;;;8.13;3.85;;;;;;;8.24;100.00;62843.13;4974527;29;20219;-79
2023/01/23 02:29:55;;;;;;;4.47;4.00;;;;;;;8.14;100.00;62835.81;4975990;29;20216;-77
2023/01/23 02:32:23;;;;;;;3.90;3.58;;;;;;;8.23;100.00;62844.09;4968086;29;20292;-79
2023/01/23 02:34:51;;;;;;;8.05;4.70;;;;;;;8.28;100.00;62854.88;4964449;28;20197;-79
2023/01/23 02:37:18;;;;;;;3.80;3.50;;;;;;;8.24;100.00;62845.16;4963503;28;20229;-78
2023/01/23 02:39:46;;;;;;;6.63;3.92;;;;;;;8.29;100.00;62853.38;4962920;28;20223;-79
2023/01/23 02:42:13;;;;;;;5.90;3.75;;;;;;;8.14;100.00;62832.78;4973823;29;20244;-78
2023/01/23 02:44:41;;;;;;;3.33;3.05;;;;;;;8.10;100.00;62831.19;4972003;29;20236;-77
2023/01/23 02:47:11;;;;;;;5.10;2.72;;;;;;;8.01;100.00;62821.88;4964106;28;20221;-79
2023/01/23 02:49:38;;;;;;;3.42;3.10;;;;;;;7.99;100.00;62817.81;4966063;29;20212;-80
2023/01/23 02:52:06;;;;;;;3.65;3.35;;;;;;;8.03;100.00;62829.03;4972999;29;20300;-78
2023/01/23 02:54:33;;;;;;;5.85;3.38;;;;;;;8.09;100.00;62830.66;4973955;29;20205;-79
2023/01/23 02:57:00;;;;;;;3.30;2.67;;;;;;;7.92;100.00;62815.66;4965269;28;20483;-79
2023/01/23 03:02:13;;;;;;;3.10;2.85;;;;;;;7.90;100.00;62808.50;4978458;28;20232;-79
2023/01/23 03:04:40;;;;;;;3.20;3.00;;;;;;;7.95;100.00;62816.22;4967927;28;20237;-80
2023/01/23 03:07:07;;;;;;;3.38;3.08;;;;;;;7.86;100.00;62809.47;4953460;29;20289;-79
2023/01/23 03:09:35;;;;;;;3.22;2.95;;;;;;;7.87;100.00;62810.47;4956197;29;20222;-79
2023/01/23 03:12:03;;;;;;;3.10;2.88;;;;;;;7.84;100.00;62802.31;4967527;29;20296;-79
2023/01/23 03:14:31;;;;;;;2.50;2.35;;;;;;;7.89;100.00;62806.97;4959549;28;20213;-77
2023/01/23 03:16:58;;;;;;;3.97;3.22;;;;;;;7.73;100.00;62790.47;4972501;29;20221;-78
2023/01/23 03:19:26;;;;;;;3.47;2.78;;;;;;;7.77;100.00;62799.63;4968026;28;20216;-79
2023/01/23 03:21:54;;;;;;;3.65;3.20;;;;;;;7.47;100.00;62763.63;4953521;29;20226;-76
2023/01/23 03:24:22;;;;;;;4.15;2.83;;;;;;;7.55;100.00;62772.38;4971988;28;20260;-79
2023/01/23 03:26:50;;;;;;;3.33;3.13;;;;;;;7.56;100.00;62780.50;4969987;28;20374;-78
2023/01/23 03:32:04;;;;;;;2.70;2.50;;;;;;;7.59;100.00;62781.06;4958773;28;20246;-77
2023/01/23 03:34:33;;;;;;;5.25;3.10;;;;;;;7.48;100.00;62769.72;4969763;29;20217;-79
2023/01/23 03:37:02;;;;;;;4.70;3.25;;;;;;;7.44;100.00;62758.00;4973521;28;20271;-78
2023/01/23 03:42:14;;;;;;;2.92;2.72;;;;;;;7.35;100.00;62751.22;4968763;28;20259;-79
2023/01/23 03:44:42;;;;;;;3.75;3.13;;;;;;;7.37;100.00;62755.84;4964484;29;20256;-78
2023/01/23 03:47:10;;;;;;;3.47;3.17;;;;;;;7.42;100.00;62761.50;4963425;29;20229;-78
2023/01/23 03:49:38;;;;;;;5.13;3.88;;;;;;;7.36;100.00;62755.31;4971407;28;20549;-76
2023/01/23 03:52:05;;;;;;;4.57;4.18;;;;;;;7.43;100.00;62762.03;4961758;29;20229;-79
2023/01/23 03:54:32;;;;;;;4.05;3.28;;;;;;;7.54;100.00;62773.88;4968414;29;20225;-79
2023/01/23 03:57:00;;;;;;;4.95;4.20;;;;;;;7.52;100.00;62771.31;4969784;29;20252;-78
2023/01/23 03:59:27;;;;;;;5.00;4.50;;;;;;;7.41;100.00;62760.47;4971054;28;20427;-77
2023/01/23 04:01:54;;;;;;;4.82;4.32;;;;;;;7.55;100.00;62771.88;4971686;29;20228;-79
2023/01/23 04:04:21;;;;;;;5.03;4.55;;;;;;;7.57;100.00;62779.53;4971611;29;20376;-78
2023/01/23 04:06:50;;;;;;;4.65;4.25;;;;;;;7.46;100.00;62770.69;4969803;29;20259;-80
2023/01/23 04:09:17;;;;;;;4.25;3.95;;;;;;;7.47;100.00;62766.16;4969076;29;20440;-78
2023/01/23 04:11:44;;;;;;;4.57;3.72;;;;;;;7.45;100.00;62761.56;4969064;29;20232;-78
2023/01/23 04:14:11;;;;;;;4.50;3.83;;;;;;;7.50;100.00;62769.75;4970367;29;20439;-77
2023/01/23 04:16:38;;;;;;;4.93;4.38;;;;;;;7.39;100.00;62758.41;4970559;28;20229;-79
2023/01/23 04:19:06;;;;;;;5.45;3.78;;;;;;;7.52;100.00;62771.84;4972072;29;20237;-79
2023/01/23 04:21:33;;;;;;;5.55;4.25;;;;;;;7.45;100.00;62762.06;4970974;29;20231;-79
2023/01/23 04:24:01;;;;;;;6.00;4.65;;;;;;;7.59;100.00;62778.53;4969601;29;20209;-79
2023/01/23 04:26:29;;;;;;;5.10;3.97;;;;;;;7.56;100.00;62775.44;4962408;28;20241;-78
2023/01/23 04:28:55;;;;;;;4.53;4.22;;;;;;;7.65;100.00;62787.25;4968995;29;20510;-79
2023/01/23 04:31:22;;;;;;;4.10;3.80;;;;;;;7.63;100.00;62780.13;4970754;28;20248;-81
2023/01/23 04:33:49;;;;;;;4.03;3.70;;;;;;;7.71;100.00;62796.50;4966362;29;20212;-79
2023/01/23 04:36:17;;;;;;;5.18;3.80;;;;;;;7.55;100.00;62777.47;4972057;29;20268;-79
2023/01/23 04:38:44;;;;;;;4.55;3.10;;;;;;;7.60;100.00;62777.53;4967309;28;20215;-79
2023/01/23 04:41:18;;;;;;;3.33;3.13;;;;;;;7.61;100.00;62781.09;4966554;28;20228;-80
2023/01/23 04:43:45;;;;;;;3.22;3.03;;;;;;;7.56;100.00;62770.38;4967055;29;20200;-78
2023/01/23 04:46:12;;;;;;;2.92;2.63;;;;;;;7.59;100.00;62779.03;4972462;28;20341;-81
2023/01/23 04:48:39;;;;;;;3.50;3.08;;;;;;;7.55;100.00;62774.41;4970326;28;20215;-78
2023/01/23 04:51:06;;;;;;;3.67;3.38;;;;;;;7.53;100.00;62772.84;4964440;29;20554;-79
2023/01/23 04:53:34;;;;;;;3.45;3.25;;;;;;;7.62;100.00;62779.63;4958765;29;20219;-77
2023/01/23 04:56:01;;;;;;;3.38;3.05;;;;;;;7.55;100.00;62779.47;4969601;29;20284;-79
2023/01/23 04:58:30;;;;;;;6.60;3.53;;;;;;;7.44;100.00;62768.13;4971632;29;20292;-78
2023/01/23 05:01:02;;;;;;;3.75;3.45;;;;;;;7.47;100.00;62766.66;4966991;28;20513;-78
2023/01/23 05:03:29;;;;;;;3.13;2.92;;;;;;;7.57;100.00;62777.00;4972216;29;20209;-79
2023/01/23 05:05:56;;;;;;;3.03;2.83;;;;;;;7.64;100.00;62784.22;4965073;28;20285;-80
2023/01/23 05:08:23;;;;;;;4.93;3.40;;;;;;;7.54;100.00;62770.84;4964184;29;20514;-79
2023/01/23 05:10:50;;;;;;;3.47;3.17;;;;;;;7.52;100.00;62774.38;4962614;28;20269;-79
2023/01/23 05:13:18;;;;;;;4.63;4.20;;;;;;;7.57;100.00;62782.06;4953307;29;20212;-78
2023/01/23 05:15:46;;;;;;;4.28;3.88;;;;;;;7.54;100.00;62773.38;4967475;28;20216;-77
2023/01/23 05:18:13;;;;;;;5.80;3.78;;;;;;;7.59;100.00;62779.03;4969147;28;20223;-80
2023/01/23 05:20:40;;;;;;;3.78;3.47;;;;;;;7.52;100.00;62771.84;4974084;28;20238;-78
2023/01/23 05:23:08;;;;;;;4.03;3.72;;;;;;;7.56;100.00;62780.50;4972873;28;20224;-79
2023/01/23 05:25:35;;;;;;;3.90;3.55;;;;;;;7.54;100.00;62770.84;4971360;29;20259;-80
2023/01/23 05:28:02;;;;;;;4.55;4.15;;;;;;;7.47;100.00;62766.66;4967391;28;20272;-77
2023/01/23 05:30:29;;;;;;;4.88;3.78;;;;;;;7.38;100.00;62762.44;4968981;28;20272;-79
2023/01/23 05:32:57;;;;;;;3.63;3.42;;;;;;;7.34;100.00;62757.78;4959066;28;20237;-80
2023/01/23 05:35:24;;;;;;;3.35;3.15;;;;;;;7.35;100.00;62753.75;4955952;29;20201;-80
2023/01/23 05:37:52;;;;;;;3.90;3.55;;;;;;;7.30;100.00;62746.59;4972503;29;20228;-79
2023/01/23 05:40:21;;;;;;;3.20;3.00;;;;;;;7.31;100.00;62750.16;4968090;28;20204;-79
2023/01/23 05:42:49;;;;;;;3.20;2.88;;;;;;;7.31;100.00;62744.56;4966234;28;20288;-79
2023/01/23 05:45:17;;;;;;;3.85;3.55;;;;;;;7.31;100.00;62747.63;4965135;28;20236;-81
2023/01/23 05:47:44;;;;;;;2.65;2.40;;;;;;;7.33;100.00;62754.75;4971472;29;20537;-79
2023/01/23 05:50:17;;;;;;;3.97;3.40;;;;;;;7.24;100.00;62747.47;4970317;29;20216;-80
2023/01/23 05:52:44;;;;;;;3.05;2.80;;;;;;;7.21;100.00;62739.31;4972925;28;20421;-81
2023/01/23 05:55:12;;;;;;;2.70;2.50;;;;;;;7.23;100.00;62736.31;4969576;28;20482;-80
2023/01/23 05:57:39;;;;;;;3.58;3.03;;;;;;;7.20;100.00;62738.28;4971364;28;20234;-80
2023/01/23 06:00:08;;;;;;;2.65;2.45;;;;;;;7.20;100.00;62743.34;4968387;29;20217;-83
2023/01/23 06:02:35;;;;;;;3.67;2.70;;;;;;;7.32;100.00;62751.19;4965875;28;20264;-81
2023/01/23 06:05:03;;;;;;;2.70;2.45;;;;;;;7.25;100.00;62743.44;4955251;29;20205;-81
2023/01/23 06:07:32;;;;;;;3.13;2.53;;;;;;;7.18;100.00;62741.78;4966806;29;20292;-79
2023/01/23 06:09:58;;;;;;;2.40;2.20;;;;;;;7.22;100.00;62742.88;4973421;29;20227;-81
2023/01/23 06:12:26;;;;;;;2.33;2.13;;;;;;;7.27;100.00;62745.50;4973607;28;20489;-83
2023/01/23 06:14:53;;;;;;;2.40;2.20;;;;;;;7.41;100.00;62760.47;4973142;29;20212;-81
2023/01/23 06:17:21;;;;;;;1.95;1.85;;;;;;;7.17;100.00;62733.19;4969320;29;20234;-81
2023/01/23 06:19:48;;;;;;;2.40;2.28;;;;;;;7.38;100.00;62759.38;4967874;28;20241;-79
2023/01/23 06:22:15;;;;;;;2.70;1.88;;;;;;;7.41;100.00;62757.41;4959415;29;20236;-81
2023/01/23 06:24:43;;;;;;;2.30;2.20;;;;;;;7.43;100.00;62760.00;4968279;28;20225;-79
2023/01/23 06:27:11;;;;;;;3.03;2.15;;;;;;;7.41;100.00;62760.47;4971990;28;20275;-81
2023/01/23 06:29:38;;;;;;;2.33;2.13;;;;;;;7.31;100.00;62749.63;4970914;29;20243;-82
2023/01/23 06:32:06;;;;;;;2.72;2.53;;;;;;;7.38;100.00;62757.38;4973907;29;20228;-82
2023/01/23 06:34:33;;;;;;;3.67;2.55;;;;;;;7.41;100.00;62757.41;4970158;29;20275;-79
2023/01/23 06:37:00;;;;;;;2.97;2.67;;;;;;;7.31;100.00;62749.63;4972902;29;20221;-81
2023/01/23 06:39:29;;;;;;;2.35;2.25;;;;;;;7.39;100.00;62760.41;4972729;29;20201;-79
2023/01/23 06:41:57;;;;;;;3.08;2.80;;;;;;;7.46;100.00;62763.09;4972074;29;20220;-82
2023/01/23 06:44:24;;;;;;;3.80;3.00;;;;;;;7.47;100.00;62766.66;4970734;29;20494;-81
2023/01/23 06:46:53;;;;;;;3.50;3.10;;;;;;;7.51;100.00;62767.72;4970188;29;20239;-79
2023/01/23 06:49:20;;;;;;;4.47;3.17;;;;;;;7.32;100.00;62753.19;4968360;29;20264;-79
2023/01/23 06:51:47;;;;;;;3.67;3.30;;;;;;;7.40;100.00;62758.94;4970949;29;20312;-80
2023/01/23 06:54:14;;;;;;;4.50;3.47;;;;;;;7.15;100.00;62736.16;4971809;29;20201;-80
2023/01/23 06:56:41;;;;;;;3.85;3.58;;;;;;;7.23;100.00;62741.38;4969452;29;20225;-80
2023/01/23 06:59:10;;;;;;;4.00;3.60;;;;;;;7.29;100.00;62747.56;4969107;29;20220;-82
2023/01/23 07:01:38;;;;;;;8.65;4.40;;;;;;;7.18;100.00;62739.25;4969948;28;20244;-82
2023/01/23 07:04:05;;;;;;;4.60;4.13;;;;;;;7.14;100.00;62732.09;4973717;28;20223;-79
2023/01/23 07:06:32;;;;;;;5.55;4.35;;;;;;;7.15;100.00;62733.63;4975389;29;20262;-81
2023/01/23 07:08:59;;;;;;;5.47;4.95;;;;;;;7.10;100.00;62727.97;4972908;29;20498;-81
2023/01/23 07:11:27;;;;;;;9.32;5.20;;;;;;;7.12;100.00;62732.56;4974934;29;20220;-81
2023/01/23 07:13:57;;;;;;;7.70;5.85;;;;;;;7.12;100.00;62730.03;4976862;29;20213;-81
2023/01/23 07:16:25;;;;;;;7.63;6.20;;;;;;;7.13;100.00;62733.59;4971618;29;20221;-82
2023/01/23 07:18:53;;;;;;;7.13;5.68;;;;;;;6.94;100.00;62709.44;4976070;29;20260;-81
2023/01/23 07:21:20;;;;;;;15.68;6.97;;;;;;;6.95;100.00;62716.03;4976675;29;20224;-83
2023/01/23 07:23:50;;;;;;;11.05;7.13;;;;;;;7.00;100.00;62715.63;4974885;29;20204;-81
2023/01/23 07:26:17;;;;;;;12.50;7.10;;;;;;;6.91;100.00;62709.41;4974216;29;20256;-82
2023/01/23 07:28:47;;;;;;;15.02;7.88;;;;;;;6.89;100.00;62704.81;4975427;29;20509;-81
2023/01/23 07:31:15;;;;;;;10.88;7.55;;;;;;;6.94;100.00;62709.97;4975937;29;20216;-81
2023/01/23 07:33:43;;;;;;;11.10;7.15;;;;;;;6.85;100.00;62702.69;4975819;29;20217;-82
2023/01/23 07:36:12;;;;;;;10.68;7.20;;;;;;;6.95;100.00;62713.00;4976226;29;20260;-80
2023/01/23 07:38:41;;;;;;;11.48;7.45;;;;;;;6.81;100.00;62701.09;4974587;28;20200;-82
2023/01/23 07:41:09;;;;;;;11.00;6.90;;;;;;;6.83;100.00;62703.16;4958434;29;20231;-81
2023/01/23 07:43:45;;;;;;;10.50;6.55;;;;;;;6.80;100.00;62695.00;4976218;28;20212;-80
2023/01/23 07:46:15;;;;;;;8.18;6.57;;;;;;;6.83;100.00;62698.59;4975279;29;20268;-82
2023/01/23 07:48:46;;;;;;;10.50;7.28;;;;;;;6.77;100.00;62694.97;4973918;29;20193;-82
2023/01/23 07:51:14;;;;;;;7.50;5.50;;;;;;;6.66;100.00;62688.16;4971552;29;20581;-82
2023/01/23 07:53:41;;;;;;;11.00;5.43;;;;;;;6.67;100.00;62687.19;4973581;29;20229;-82
2023/01/23 07:56:08;;;;;;;6.20;4.97;;;;;;;6.73;100.00;62693.34;4975126;29;20235;-82
2023/01/23 07:58:35;;;;;;;8.80;5.75;;;;;;;6.75;100.00;62695.41;4968907;29;20494;-82
2023/01/23 08:01:08;;;;;;;7.68;5.03;;;;;;;6.93;100.00;62708.41;4972460;28;20221;-80
2023/01/23 08:03:35;;;;;;;5.25;4.60;;;;;;;6.87;100.00;62699.69;4974631;29;20197;-82
2023/01/23 08:06:04;;;;;;;6.88;4.82;;;;;;;6.88;100.00;62703.25;4973074;29;20359;-81
2023/01/23 08:08:31;;;;;;;8.13;5.38;;;;;;;6.78;100.00;62693.44;4971185;29;20204;-81
2023/01/23 08:10:59;;;;;;;9.32;5.45;;;;;;;6.65;100.00;62685.13;4970904;29;20225;-82
2023/01/23 08:13:29;;;;;;;9.13;5.30;;;;;;;6.69;100.00;62686.72;4953743;29;20245;-81
2023/01/23 08:15:58;;;;;;;6.55;4.75;;;;;;;6.64;100.00;62683.56;4955708;29;20216;-83
2023/01/23 08:18:26;;;;;;;8.77;5.25;;;;;;;6.59;100.00;62676.38;4968085;29;20200;-83
2023/01/23 08:20:54;;;;;;;5.95;4.45;;;;;;;6.60;100.00;62677.44;4970617;28;20211;-81
2023/01/23 08:23:24;;;;;;;6.30;4.18;;;;;;;6.76;100.00;62690.88;4975026;29;20201;-81
2023/01/23 08:25:53;;;;;;;6.57;5.45;;;;;;;6.83;100.00;62700.63;4972430;29;20238;-80
2023/01/23 08:28:20;;;;;;;5.95;4.13;;;;;;;6.84;100.00;62704.72;4973591;29;20204;-81
2023/01/23 08:30:48;;;;;;;4.35;3.90;;;;;;;6.93;100.00;62708.41;4972975;29;20518;-82
2023/01/23 08:33:15;;;;;;;7.05;4.72;;;;;;;6.92;100.00;62712.97;4973961;28;20227;-82
2023/01/23 08:35:49;;;;;;;5.28;4.07;;;;;;;6.90;100.00;62710.38;4971847;29;20276;-80
2023/01/23 08:38:18;;;;;;;4.97;4.20;;;;;;;6.90;100.00;62708.34;4973165;29;20197;-83
2023/01/23 08:40:46;;;;;;;5.20;4.50;;;;;;;6.97;100.00;62715.06;4972618;29;20265;-81
2023/01/23 08:43:13;;;;;;;6.00;4.28;;;;;;;6.93;100.00;62708.94;4968431;29;20217;-82
2023/01/23 08:45:42;;;;;;;4.32;3.90;;;;;;;6.74;100.00;62696.94;4953749;29;20408;-80
2023/01/23 08:48:09;;;;;;;4.13;3.83;;;;;;;6.62;100.00;62682.03;4954997;29;20221;-82
2023/01/23 08:50:36;;;;;;;7.78;4.25;;;;;;;6.77;100.00;62696.97;4966181;29;20192;-82
2023/01/23 08:53:08;;;;;;;5.85;3.85;;;;;;;6.81;100.00;62696.56;4974130;29;20221;-82
2023/01/23 08:55:37;;;;;;;5.45;3.88;;;;;;;6.63;100.00;62680.00;4974303;29;20215;-81
2023/01/23 08:58:06;;;;;;;5.03;4.57;;;;;;;6.85;100.00;62703.19;4973361;29;20208;-82
2023/01/23 09:00:48;;;;;;;5.70;4.50;;;;;;;6.66;100.00;62683.09;4971531;29;20215;-82
2023/01/23 09:03:48;;;;;;;5.25;4.07;;;;;;;6.70;100.00;62685.22;4973345;29;20196;-83
2023/01/23 09:06:25;;;;;;;8.63;3.75;;;;;;;6.62;100.00;62679.50;4975868;29;20268;-81
2023/01/23 09:08:52;;;;;;;5.43;4.13;;;;;;;6.54;100.00;62671.22;4963024;29;20224;-83
2023/01/23 09:11:21;;;;;;;6.40;3.85;;;;;;;6.37;100.00;62651.19;4953565;29;20225;-80
2023/01/23 09:13:50;;;;;;;4.47;4.00;;;;;;;6.51;100.00;62665.09;4957078;29;20201;-82
2023/01/23 09:16:17;;;;;;;6.82;4.00;;;;;;;6.57;100.00;62673.81;4968912;29;20235;-80
2023/01/23 09:18:45;;;;;;;6.35;4.13;;;;;;;6.47;100.00;62663.50;4970188;29;20216;-81
2023/01/23 09:21:14;;;;;;;4.18;3.75;;;;;;;6.54;100.00;62670.72;4972709;28;20255;-82
2023/01/23 09:23:41;;;;;;;5.05;4.25;;;;;;;6.54;100.00;62671.22;4973930;28;20204;-83
2023/01/23 09:26:10;;;;;;;4.85;4.32;;;;;;;6.54;100.00;62673.25;4969387;28;20300;-81
2023/01/23 09:28:40;;;;;;;4.88;4.38;;;;;;;6.41;100.00;62655.31;4972974;29;20205;-81
2023/01/23 09:31:11;;;;;;;4.65;4.10;;;;;;;6.52;100.00;62669.16;4965871;29;20311;-81
2023/01/23 09:33:38;;;;;;;5.63;4.32;;;;;;;6.60;100.00;62676.91;4958428;29;20568;-81
2023/01/23 09:36:07;;;;;;;6.28;4.93;;;;;;;6.62;100.00;62684.03;4952191;29;20226;-79
2023/01/23 09:38:34;;;;;;;8.13;5.30;;;;;;;6.60;100.00;62671.84;4954007;29;20233;-79
2023/01/23 09:41:10;;;;;;;6.55;5.00;;;;;;;6.53;100.00;62669.69;4953542;29;20229;-79
2023/01/23 09:43:43;;;;;;;5.95;4.45;;;;;;;6.58;100.00;62672.84;4954286;29;20197;-79
2023/01/23 09:46:19;;;;;;;7.18;5.47;;;;;;;6.52;100.00;62671.69;4954341;29;20225;-80
2023/01/23 09:48:48;;;;;;;5.60;4.25;;;;;;;6.51;100.00;62665.63;4956589;29;20208;-80
2023/01/23 09:51:47;;;;;;;6.28;5.13;;;;;;;6.32;100.00;62653.59;4972663;28;20237;-81
2023/01/23 09:54:27;;;;;;;5.80;5.10;;;;;;;6.49;100.00;62671.13;4972999;29;20220;-80
2023/01/23 09:57:01;;;;;;;7.95;4.80;;;;;;;6.43;100.00;62657.38;4968907;29;20228;-80
2023/01/23 09:59:36;;;;;;;5.43;4.80;;;;;;;6.55;100.00;62672.28;4974514;29;20205;-82
2023/01/23 10:02:14;;;;;;;6.90;5.70;;;;;;;6.50;100.00;62666.59;4972433;29;20295;-82
2023/01/23 10:04:42;;;;;;;8.68;5.53;;;;;;;6.43;100.00;62659.38;4970281;29;20205;-82
2023/01/23 10:07:28;;;;;;;6.28;5.03;;;;;;;6.12;100.00;62629.94;4972903;29;20267;-81
2023/01/23 10:10:17;;;;;;;8.43;6.13;;;;;;;6.41;100.00;62652.25;4974388;29;20228;-80
2023/01/23 10:12:53;;;;;;;6.75;4.82;;;;;;;6.43;100.00;62661.91;4974532;29;20223;-81
2023/01/23 10:15:31;;;;;;;7.35;5.25;;;;;;;6.47;100.00;62664.00;4972952;29;20215;-79
2023/01/23 10:18:38;;;;;;;7.28;5.07;;;;;;;6.31;100.00;62649.53;4970185;29;20244;-81
2023/01/23 10:21:20;;;;;;;7.05;5.68;;;;;;;6.50;100.00;62664.59;4970330;29;20220;-82
2023/01/23 10:23:57;;;;;;;8.82;5.35;;;;;;;6.70;100.00;62689.75;4970493;29;20202;-80
2023/01/23 10:26:30;;;;;;;10.20;5.80;;;;;;;6.59;100.00;62680.94;4973287;29;20232;-82
2023/01/23 10:29:02;;;;;;;7.53;5.47;;;;;;;6.54;100.00;62673.75;4973498;29;20205;-81
2023/01/23 10:31:38;;;;;;;7.47;5.40;;;;;;;6.75;100.00;62692.38;4970568;29;20228;-81
2023/01/23 10:34:15;;;;;;;6.93;5.57;;;;;;;6.74;100.00;62691.34;4971387;29;20216;-81
2023/01/23 10:36:54;;;;;;;8.73;6.13;;;;;;;6.76;100.00;62693.94;4974841;28;20284;-83
2023/01/23 10:39:26;;;;;;;6.20;5.60;;;;;;;6.90;100.00;62705.31;4977334;29;20194;-82
2023/01/23 10:41:53;;;;;;;9.05;6.20;;;;;;;6.85;100.00;62705.22;4975903;29;20212;-81
2023/01/23 10:44:21;;;;;;;7.90;6.32;;;;;;;6.91;100.00;62706.88;4975671;29;20212;-81
2023/01/23 10:46:50;;;;;;;10.93;6.43;;;;;;;6.86;100.00;62704.25;4971165;29;20264;-82
2023/01/23 10:49:32;;;;;;;7.30;5.63;;;;;;;6.92;100.00;62709.91;4974045;29;20306;-82
2023/01/23 10:52:01;;;;;;;8.70;6.28;;;;;;;6.85;100.00;62703.19;4974477;29;20216;-81
2023/01/23 10:54:29;;;;;;;6.93;5.75;;;;;;;6.67;100.00;62689.19;4976519;29;20204;-78
2023/01/23 10:56:58;;;;;;;10.45;6.78;;;;;;;6.70;100.00;62685.22;4973901;28;20224;-81
2023/01/23 10:59:35;;;;;;;8.57;6.75;;;;;;;6.72;100.00;62689.28;4973453;29;20209;-79
2023/01/23 11:02:20;;;;;;;8.82;6.55;;;;;;;6.74;100.00;62694.41;4974440;29;20283;-82
2023/01/23 11:04:50;;;;;;;9.27;7.07;;;;;;;6.72;100.00;62684.22;4971591;29;20250;-81
2023/01/23 11:07:20;;;;;;;7.82;6.57;;;;;;;6.57;100.00;62676.88;4974721;29;20240;-83
2023/01/23 11:09:55;;;;;;;8.98;6.82;;;;;;;6.62;100.00;62678.97;4976218;29;20213;-81
2023/01/23 11:12:24;;;;;;;8.90;6.53;;;;;;;6.69;100.00;62686.72;4976309;29;20228;-79
2023/01/23 11:14:52;;;;;;;10.55;7.38;;;;;;;6.73;100.00;62693.34;4976011;29;20318;-80
2023/01/23 11:17:23;;;;;;;7.00;6.30;;;;;;;6.77;100.00;62694.97;4976189;29;20248;-82
2023/01/23 11:19:53;;;;;;;7.35;5.93;;;;;;;6.75;100.00;62689.84;4978192;29;20211;-80
2023/01/23 11:22:36;;;;;;;10.95;7.43;;;;;;;6.70;100.00;62687.75;4974376;29;20275;-79
2023/01/23 11:25:30;;;;;;;8.30;6.80;;;;;;;6.90;100.00;62710.38;4974398;29;20263;-80
2023/01/23 11:28:00;;;;;;;9.90;7.07;;;;;;;6.86;100.00;62701.72;4971004;29;20240;-82
2023/01/23 11:30:45;;;;;;;6.65;5.88;;;;;;;6.70;100.00;62687.75;4972674;29;20231;-81
2023/01/23 11:33:19;;;;;;;8.85;6.65;;;;;;;6.72;100.00;62692.34;4972482;29;20216;-79
2023/01/23 11:35:58;;;;;;;10.73;7.50;;;;;;;6.62;100.00;62678.97;4965025;29;20205;-79
2023/01/23 11:38:32;;;;;;;8.88;6.40;;;;;;;6.66;100.00;62683.59;4963919;29;20205;-81
2023/01/23 11:40:59;;;;;;;7.15;6.13;;;;;;;6.62;100.00;62678.97;4970546;29;20280;-81
2023/01/23 11:43:26;;;;;;;6.43;5.68;;;;;;;6.58;100.00;62675.38;4975504;28;20205;-82
2023/01/23 11:46:13;;;;;;;5.57;4.90;;;;;;;6.72;100.00;62689.28;4974877;29;20233;-80
2023/01/23 11:48:58;;;;;;;7.72;6.22;;;;;;;6.69;100.00;62691.25;4966078;28;20225;-82
2023/01/23 11:51:34;;;;;;;9.40;6.88;;;;;;;6.51;100.00;62667.63;4956844;29;20239;-80
2023/01/23 11:54:19;;;;;;;8.80;5.63;;;;;;;6.53;100.00;62667.69;4963128;29;20291;-80